Time;durP1;ratioP1;P1;durP2;ratioP2;P2;SDS_P1;SDS_P2;PMS_P1;PMS_P2;Temp;Humidity;BMP_temperature;BMP_pressure;BME280_temperature;BME280_humidity;BME280_pressure;Samples;Min_cycle;Max_cycle;Signal;HPM_P1;HPM_P2
2023/12/24 00:01:43;;;;;;;0.68;0.47;;;;;;;7.87;100.00;97084.63;5007872;28;20125;-63
2023/12/24 00:04:11;;;;;;;1.40;0.60;;;;;;;7.84;100.00;97074.31;5003370;28;20038;-63
2023/12/24 00:06:37;;;;;;;0.52;0.40;;;;;;;7.92;100.00;97086.59;5004733;28;20046;-66
2023/12/24 00:09:04;;;;;;;0.50;0.40;;;;;;;7.93;100.00;97066.66;4999517;28;20107;-66
2023/12/24 00:11:31;;;;;;;1.67;0.57;;;;;;;7.86;100.00;97080.31;5000608;28;20097;-64
2023/12/24 00:13:58;;;;;;;0.90;0.40;;;;;;;7.86;100.00;97085.69;4999859;28;20672;-66
2023/12/24 00:16:24;;;;;;;0.85;0.47;;;;;;;7.80;100.00;97081.25;5003978;28;20049;-65
2023/12/24 00:18:51;;;;;;;0.30;0.30;;;;;;;7.82;100.00;97081.84;4998892;28;20121;-64
2023/12/24 00:21:17;;;;;;;0.57;0.35;;;;;;;7.81;100.00;97088.28;5004754;28;20437;-65
2023/12/24 00:23:45;;;;;;;1.20;0.40;;;;;;;7.85;100.00;97083.22;4997826;28;20037;-65
2023/12/24 00:26:12;;;;;;;1.17;0.60;;;;;;;7.89;100.00;97081.69;4989494;28;20473;-65
2023/12/24 00:28:38;;;;;;;0.43;0.40;;;;;;;7.74;100.00;97083.03;5003067;28;20046;-66
2023/12/24 00:31:05;;;;;;;1.42;0.50;;;;;;;7.74;100.00;97058.78;4999567;28;20077;-65
2023/12/24 00:33:34;;;;;;;0.45;0.30;;;;;;;7.88;100.00;97093.50;4999422;28;20100;-66
2023/12/24 00:36:01;;;;;;;0.60;0.40;;;;;;;7.89;100.00;97087.88;4995983;28;20056;-66
2023/12/24 00:38:27;;;;;;;0.70;0.50;;;;;;;7.92;100.00;97082.00;4997931;28;20046;-64
2023/12/24 00:40:57;;;;;;;0.88;0.50;;;;;;;7.86;100.00;97082.16;5000269;28;20052;-65
2023/12/24 00:43:24;;;;;;;1.25;0.50;;;;;;;7.84;100.00;97077.00;4997022;28;20038;-65
2023/12/24 00:45:50;;;;;;;0.75;0.47;;;;;;;7.88;100.00;97071.94;5003853;28;20127;-66
2023/12/24 00:48:17;;;;;;;1.02;0.60;;;;;;;7.80;100.00;97108.22;5001784;28;20066;-64
2023/12/24 00:50:44;;;;;;;0.93;0.52;;;;;;;7.85;100.00;97054.38;4993921;28;20100;-66
2023/12/24 00:53:11;;;;;;;0.43;0.38;;;;;;;7.86;100.00;97055.22;4998604;28;20078;-65
2023/12/24 00:55:41;;;;;;;4.63;0.60;;;;;;;7.91;100.00;97058.81;5004518;28;20038;-65
2023/12/24 00:58:08;;;;;;;2.08;0.75;;;;;;;7.87;100.00;97054.97;4975283;28;20232;-65
2023/12/24 01:00:35;;;;;;;2.50;0.65;;;;;;;7.86;100.00;97056.03;4993857;28;20048;-66
2023/12/24 01:03:01;;;;;;;1.20;0.60;;;;;;;7.85;100.00;97056.28;5001917;28;20038;-64
2023/12/24 01:05:28;;;;;;;0.85;0.50;;;;;;;7.87;100.00;97064.94;5000278;28;20525;-66
2023/12/24 01:07:56;;;;;;;1.33;0.60;;;;;;;7.91;100.00;97060.69;5003313;28;20076;-64
2023/12/24 01:10:22;;;;;;;2.55;0.60;;;;;;;7.88;100.00;97059.28;4998239;28;20117;-66
2023/12/24 01:12:49;;;;;;;1.35;0.60;;;;;;;7.88;100.00;97062.00;5003227;28;20113;-64
2023/12/24 01:15:15;;;;;;;1.10;0.50;;;;;;;7.89;100.00;97074.41;5012722;28;20045;-63
2023/12/24 01:17:42;;;;;;;1.50;0.60;;;;;;;7.85;100.00;97067.84;5003625;28;20560;-63
2023/12/24 01:20:13;;;;;;;1.52;0.60;;;;;;;7.87;100.00;97087.31;5002315;28;20444;-64
2023/12/24 01:22:41;;;;;;;1.48;0.55;;;;;;;7.86;100.00;97069.53;5001538;28;20042;-63
2023/12/24 01:25:09;;;;;;;1.02;0.52;;;;;;;7.89;100.00;97081.69;5000454;28;20046;-65
2023/12/24 01:27:37;;;;;;;1.17;0.52;;;;;;;7.82;100.00;97068.38;5001915;28;20046;-63
2023/12/24 01:30:04;;;;;;;1.25;0.60;;;;;;;7.65;100.00;97065.63;4996502;28;20460;-65
2023/12/24 01:32:31;;;;;;;1.05;0.47;;;;;;;7.70;100.00;97075.69;4991092;28;20046;-63
2023/12/24 01:34:58;;;;;;;2.15;0.63;;;;;;;7.82;100.00;97071.06;5011914;28;20041;-63
2023/12/24 01:37:25;;;;;;;1.15;0.57;;;;;;;7.75;100.00;97075.78;5015415;28;20045;-64
2023/12/24 01:39:51;;;;;;;0.98;0.50;;;;;;;7.64;100.00;97070.19;5002501;28;20038;-64
2023/12/24 01:42:18;;;;;;;1.38;0.40;;;;;;;7.67;100.00;97061.63;4995608;28;20042;-63
2023/12/24 01:44:44;;;;;;;1.35;0.60;;;;;;;7.60;100.00;97063.66;4997119;28;20049;-63
2023/12/24 01:47:11;;;;;;;2.75;0.50;;;;;;;7.65;100.00;97046.75;5003371;28;20060;-63
2023/12/24 01:49:40;;;;;;;1.00;0.40;;;;;;;7.55;100.00;97050.06;5002816;28;20045;-66
2023/12/24 01:52:06;;;;;;;1.33;0.60;;;;;;;7.54;100.00;97038.50;4998168;28;20100;-64
2023/12/24 01:54:34;;;;;;;1.45;0.47;;;;;;;7.57;100.00;97064.13;5001356;28;20057;-64
2023/12/24 01:57:01;;;;;;;0.90;0.40;;;;;;;7.54;100.00;97065.44;4998457;28;20717;-63
2023/12/24 01:59:29;;;;;;;1.35;0.50;;;;;;;7.59;100.00;97067.38;4994688;28;20501;-65
2023/12/24 02:01:56;;;;;;;0.88;0.60;;;;;;;7.51;100.00;97076.69;5008064;28;20048;-64
2023/12/24 02:04:23;;;;;;;1.02;0.50;;;;;;;7.59;100.00;97067.38;5002108;28;20080;-63
2023/12/24 02:06:50;;;;;;;0.77;0.40;;;;;;;7.63;100.00;97073.13;5013727;28;20042;-66
2023/12/24 02:09:18;;;;;;;2.30;0.77;;;;;;;7.57;100.00;97074.91;4999800;28;20065;-64
2023/12/24 02:11:44;;;;;;;1.25;0.50;;;;;;;7.56;100.00;97081.34;4991347;28;20050;-64
2023/12/24 02:14:11;;;;;;;2.55;0.68;;;;;;;7.62;100.00;97068.78;4996962;28;20436;-65
2023/12/24 02:16:40;;;;;;;0.95;0.60;;;;;;;7.73;100.00;97076.00;4999914;28;20049;-66
2023/12/24 02:19:18;;;;;;;2.90;0.60;;;;;;;7.74;100.00;97085.72;5002388;28;20100;-63
2023/12/24 02:21:45;;;;;;;0.52;0.40;;;;;;;7.80;99.90;97100.13;4991665;28;20038;-63
2023/12/24 02:24:14;;;;;;;2.60;0.50;;;;;;;7.71;100.00;97088.09;5000022;28;20548;-66
2023/12/24 02:26:45;;;;;;;2.97;0.40;;;;;;;7.67;100.00;97101.25;5001214;28;20065;-65
2023/12/24 02:29:19;;;;;;;2.30;0.40;;;;;;;7.70;100.00;97089.16;5001314;28;20046;-64
2023/12/24 02:31:49;;;;;;;1.17;0.43;;;;;;;7.62;100.00;97088.47;4999189;28;20149;-63
2023/12/24 02:34:19;;;;;;;0.80;0.60;;;;;;;7.57;100.00;97093.75;4995801;28;20048;-64
2023/12/24 02:36:48;;;;;;;1.02;0.60;;;;;;;7.59;100.00;97085.44;4997559;28;20453;-64
2023/12/24 02:39:15;;;;;;;0.85;0.43;;;;;;;7.73;100.00;97080.56;5005474;28;20592;-64
2023/12/24 02:41:42;;;;;;;0.38;0.30;;;;;;;7.73;100.00;97094.88;5003176;28;20042;-65
2023/12/24 02:44:10;;;;;;;0.80;0.40;;;;;;;7.76;100.00;97107.88;5003950;28;20037;-64
2023/12/24 02:46:37;;;;;;;2.25;0.55;;;;;;;7.78;100.00;97113.03;5005860;28;20125;-63
2023/12/24 02:49:03;;;;;;;0.60;0.40;;;;;;;7.66;100.00;97107.66;5010561;28;20050;-64
2023/12/24 02:51:30;;;;;;;0.77;0.40;;;;;;;7.54;100.00;97107.72;5000489;28;20048;-64
2023/12/24 02:53:56;;;;;;;0.40;0.25;;;;;;;7.61;100.00;97094.94;5005632;28;20037;-65
2023/12/24 02:56:23;;;;;;;0.88;0.40;;;;;;;7.58;100.00;97103.47;5005789;28;20440;-66
2023/12/24 02:58:49;;;;;;;0.60;0.30;;;;;;;7.48;100.00;97098.69;4986259;28;20274;-66
2023/12/24 03:01:16;;;;;;;0.80;0.30;;;;;;;7.35;100.00;97105.19;4975481;28;20097;-65
2023/12/24 03:03:42;;;;;;;1.77;0.50;;;;;;;7.45;100.00;97099.19;5002302;28;20037;-65
2023/12/24 03:06:09;;;;;;;0.63;0.30;;;;;;;7.38;100.00;97085.84;5001577;28;20041;-65
2023/12/24 03:08:36;;;;;;;0.57;0.25;;;;;;;7.26;100.00;97093.16;5000063;28;20063;-65
2023/12/24 03:11:02;;;;;;;0.30;0.30;;;;;;;7.39;100.00;97083.97;5002006;28;20038;-66
2023/12/24 03:13:29;;;;;;;0.43;0.40;;;;;;;7.42;100.00;97094.28;5003888;28;20473;-65
2023/12/24 03:15:56;;;;;;;2.33;0.50;;;;;;;7.35;100.00;97098.97;5005378;28;20046;-63
2023/12/24 03:18:22;;;;;;;1.52;0.50;;;;;;;7.31;100.00;97092.41;5003833;28;21465;-65
2023/12/24 03:20:49;;;;;;;0.40;0.30;;;;;;;7.22;100.00;97094.69;5004593;28;20629;-65
2023/12/24 03:23:15;;;;;;;0.95;0.40;;;;;;;7.29;100.00;97092.66;5002517;28;20045;-66
2023/12/24 03:25:42;;;;;;;0.70;0.32;;;;;;;7.26;100.00;97088.56;5003087;28;20050;-63
2023/12/24 03:28:08;;;;;;;1.42;0.50;;;;;;;7.23;100.00;97099.00;5020366;28;20100;-63
2023/12/24 03:30:35;;;;;;;4.10;0.60;;;;;;;7.19;100.00;97087.06;5003743;28;20049;-64
2023/12/24 03:33:02;;;;;;;0.60;0.50;;;;;;;7.26;100.00;97098.53;5005650;28;20422;-67
2023/12/24 03:35:29;;;;;;;1.40;0.73;;;;;;;7.32;100.00;97080.59;5001199;28;20108;-63
2023/12/24 03:37:56;;;;;;;1.42;0.70;;;;;;;7.26;100.00;97075.09;5004451;28;20482;-66
2023/12/24 03:40:22;;;;;;;0.50;0.50;;;;;;;7.17;100.00;97060.38;5003013;28;20224;-63
2023/12/24 03:42:48;;;;;;;0.63;0.40;;;;;;;7.27;100.00;97062.47;5004202;28;20096;-64
2023/12/24 03:45:16;;;;;;;0.88;0.50;;;;;;;7.19;100.00;97062.84;5004929;28;20081;-65
2023/12/24 03:47:42;;;;;;;1.17;0.60;;;;;;;7.19;100.00;97069.03;5002965;28;20037;-65
2023/12/24 03:50:09;;;;;;;1.05;0.40;;;;;;;7.20;100.00;97070.69;4997379;28;20185;-64
2023/12/24 03:52:36;;;;;;;0.90;0.60;;;;;;;7.28;100.00;97066.78;5005468;28;20060;-65
2023/12/24 03:55:02;;;;;;;1.23;0.60;;;;;;;7.26;100.00;97041.97;5004630;28;20046;-63
2023/12/24 03:57:29;;;;;;;1.00;0.50;;;;;;;7.41;100.00;97054.94;5002876;28;20049;-63
2023/12/24 03:59:55;;;;;;;0.88;0.50;;;;;;;7.39;100.00;97051.66;5012682;28;20521;-65
2023/12/24 04:02:24;;;;;;;0.82;0.50;;;;;;;7.32;100.00;97030.25;5003199;28;20061;-66
2023/12/24 04:04:51;;;;;;;2.60;0.60;;;;;;;7.40;100.00;97037.13;4981083;28;20149;-65
2023/12/24 04:07:18;;;;;;;2.85;0.80;;;;;;;7.44;100.00;97032.09;4997198;28;20050;-66
2023/12/24 04:09:45;;;;;;;1.83;0.70;;;;;;;7.51;100.00;97040.81;5002181;28;20776;-63
2023/12/24 04:12:11;;;;;;;1.00;0.60;;;;;;;7.58;100.00;97027.22;5001302;28;20152;-64
2023/12/24 04:14:38;;;;;;;0.95;0.50;;;;;;;7.53;100.00;97027.94;5004755;28;20045;-63
2023/12/24 04:17:06;;;;;;;2.17;0.85;;;;;;;7.50;100.00;97041.88;5002259;28;20050;-66
2023/12/24 04:19:32;;;;;;;0.77;0.57;;;;;;;7.53;100.00;97034.13;5004714;28;20042;-64
2023/12/24 04:21:59;;;;;;;1.33;0.60;;;;;;;7.62;100.00;97044.53;4999200;28;20050;-63
2023/12/24 04:24:26;;;;;;;1.10;0.55;;;;;;;7.65;100.00;97044.06;4999643;28;20049;-64
2023/12/24 04:26:52;;;;;;;0.38;0.38;;;;;;;7.62;100.00;97039.13;5002884;28;20107;-65
2023/12/24 04:29:19;;;;;;;1.50;0.57;;;;;;;7.54;100.00;97038.50;5001020;28;20046;-64
2023/12/24 04:31:45;;;;;;;0.88;0.50;;;;;;;7.40;100.00;97039.81;5001131;28;20042;-65
2023/12/24 04:34:12;;;;;;;1.40;0.60;;;;;;;7.35;100.00;97034.31;5002641;28;20547;-63
2023/12/24 04:36:39;;;;;;;1.13;0.57;;;;;;;7.34;100.00;97022.72;5002943;28;20405;-65
2023/12/24 04:39:05;;;;;;;1.40;0.70;;;;;;;7.30;100.00;97013.53;5014137;28;20509;-63
2023/12/24 04:41:32;;;;;;;1.60;0.60;;;;;;;7.39;100.00;97017.47;4995953;28;20042;-64
2023/12/24 04:44:03;;;;;;;1.80;0.50;;;;;;;7.42;100.00;97002.69;5001752;28;20038;-64
2023/12/24 04:46:29;;;;;;;1.42;0.63;;;;;;;7.21;100.00;96998.78;5002630;28;20041;-63
2023/12/24 04:48:56;;;;;;;1.38;0.60;;;;;;;7.24;100.00;96998.31;4998600;28;20121;-63
2023/12/24 04:51:23;;;;;;;1.05;0.50;;;;;;;7.13;100.00;97000.81;5002289;28;20067;-62
2023/12/24 04:53:50;;;;;;;0.50;0.50;;;;;;;7.09;100.00;97007.72;4999811;28;20038;-65
2023/12/24 04:56:20;;;;;;;2.72;0.70;;;;;;;7.09;100.00;97009.59;4996804;28;20058;-64
2023/12/24 04:58:48;;;;;;;1.27;0.57;;;;;;;7.03;100.00;96997.88;4989713;28;20057;-63
2023/12/24 05:01:16;;;;;;;0.57;0.45;;;;;;;7.01;100.00;96979.28;5000192;28;20038;-64
2023/12/24 05:03:43;;;;;;;1.45;0.43;;;;;;;7.06;100.00;96997.44;5007140;28;20044;-64
2023/12/24 05:06:10;;;;;;;0.50;0.30;;;;;;;7.09;100.00;96974.59;4988781;28;20585;-63
2023/12/24 05:08:39;;;;;;;0.82;0.40;;;;;;;7.08;100.00;96963.00;4990041;28;20464;-65
2023/12/24 05:11:06;;;;;;;1.38;0.40;;;;;;;6.99;100.00;96962.56;5001903;28;20532;-64
2023/12/24 05:13:34;;;;;;;1.08;0.40;;;;;;;7.03;100.00;96961.03;5002193;28;20545;-64
2023/12/24 05:16:02;;;;;;;0.90;0.47;;;;;;;6.90;100.00;96972.88;4999179;28;20633;-65
2023/12/24 05:18:29;;;;;;;1.58;0.50;;;;;;;6.98;100.00;96962.81;5001989;28;20060;-65
2023/12/24 05:20:56;;;;;;;0.70;0.40;;;;;;;7.06;100.00;96965.13;4999318;28;20124;-62
2023/12/24 05:23:24;;;;;;;1.65;0.38;;;;;;;7.00;100.00;96964.19;5001722;28;20038;-65
2023/12/24 05:25:51;;;;;;;0.90;0.50;;;;;;;7.02;100.00;96970.19;5002134;28;20128;-64
2023/12/24 05:28:17;;;;;;;0.82;0.47;;;;;;;7.08;100.00;96978.34;4996884;28;20046;-64
2023/12/24 05:30:44;;;;;;;3.65;0.40;;;;;;;7.10;100.00;96978.91;5002583;28;20072;-63
2023/12/24 05:33:11;;;;;;;0.70;0.30;;;;;;;7.09;100.00;96978.09;5001187;28;20034;-64
2023/12/24 05:35:38;;;;;;;0.50;0.30;;;;;;;7.21;100.00;97002.28;5002386;28;20974;-63
2023/12/24 05:38:05;;;;;;;0.40;0.10;;;;;;;7.34;100.00;97008.47;5002157;28;20184;-64
2023/12/24 05:40:32;;;;;;;0.30;0.20;;;;;;;7.24;100.00;96998.31;4998585;28;20038;-62
2023/12/24 05:42:58;;;;;;;0.28;0.20;;;;;;;7.23;100.00;96992.09;4998638;28;20058;-63
2023/12/24 05:45:25;;;;;;;1.35;0.10;;;;;;;7.23;100.00;96984.00;4999272;28;20677;-63
2023/12/24 05:47:51;;;;;;;0.32;0.13;;;;;;;7.13;100.00;96990.03;5002286;28;20050;-64
2023/12/24 05:50:18;;;;;;;1.65;0.25;;;;;;;7.10;100.00;96989.69;4997400;28;20457;-64
2023/12/24 05:52:45;;;;;;;0.20;0.20;;;;;;;7.14;100.00;96970.13;4991053;28;20038;-63
2023/12/24 05:55:11;;;;;;;0.10;0.10;;;;;;;7.10;100.00;96978.91;5002456;28;20042;-63
2023/12/24 05:57:38;;;;;;;0.30;0.28;;;;;;;7.23;100.00;96975.94;5001073;28;20460;-65
2023/12/24 06:00:05;;;;;;;0.15;0.10;;;;;;;7.38;100.00;96972.72;4998368;28;20053;-63
2023/12/24 06:02:40;;;;;;;0.22;0.20;;;;;;;7.46;100.00;96987.69;5016013;28;20042;-65
2023/12/24 06:05:06;;;;;;;0.55;0.22;;;;;;;7.37;100.00;96984.53;4999614;28;20041;-64
2023/12/24 06:07:33;;;;;;;0.45;0.20;;;;;;;7.41;100.00;96976.81;5000358;28;20572;-63
2023/12/24 06:10:00;;;;;;;2.75;0.40;;;;;;;7.38;100.00;96972.72;4998371;28;20058;-65
2023/12/24 06:12:26;;;;;;;0.40;0.30;;;;;;;7.39;100.00;96954.69;5000727;28;20046;-64
2023/12/24 06:14:53;;;;;;;0.98;0.30;;;;;;;7.43;100.00;96939.66;5003121;28;20056;-63
2023/12/24 06:17:19;;;;;;;0.75;0.40;;;;;;;7.46;100.00;96949.13;5000747;28;20047;-65
2023/12/24 06:19:46;;;;;;;0.20;0.20;;;;;;;7.49;100.00;96946.78;4998823;28;20045;-64
2023/12/24 06:22:12;;;;;;;0.52;0.30;;;;;;;7.46;100.00;96923.03;5004381;28;20042;-64
2023/12/24 06:24:39;;;;;;;0.90;0.40;;;;;;;7.45;100.00;96917.88;5004059;28;20064;-63
2023/12/24 06:27:05;;;;;;;1.13;0.30;;;;;;;7.44;100.00;96929.72;5006195;28;20129;-65
2023/12/24 06:29:32;;;;;;;1.73;0.30;;;;;;;7.59;100.00;96913.00;5002135;28;20135;-64
2023/12/24 06:31:58;;;;;;;0.25;0.25;;;;;;;7.51;100.00;96925.81;5005275;28;20065;-64
2023/12/24 06:34:25;;;;;;;0.38;0.30;;;;;;;7.52;100.00;96900.50;5006173;28;20104;-63
2023/12/24 06:36:52;;;;;;;0.50;0.40;;;;;;;7.49;100.00;96894.78;5004757;28;20042;-63
2023/12/24 06:39:18;;;;;;;1.13;0.20;;;;;;;7.52;100.00;96894.31;5005255;28;20054;-65
2023/12/24 06:41:45;;;;;;;1.00;0.30;;;;;;;7.50;100.00;96874.88;5002969;28;20054;-64
2023/12/24 06:44:12;;;;;;;1.15;0.40;;;;;;;7.47;100.00;96888.81;5003624;28;20034;-64
2023/12/24 06:46:38;;;;;;;1.80;0.65;;;;;;;7.49;100.00;96882.13;5001856;28;20093;-64
2023/12/24 06:49:05;;;;;;;0.40;0.30;;;;;;;7.48;100.00;96901.25;5000032;28;20070;-66
2023/12/24 06:51:32;;;;;;;1.05;0.47;;;;;;;7.51;100.00;96898.03;5005396;28;20127;-64
2023/12/24 06:53:59;;;;;;;0.63;0.40;;;;;;;7.59;100.00;96903.03;5003615;28;20440;-69
2023/12/24 06:56:25;;;;;;;0.68;0.30;;;;;;;7.54;100.00;96897.56;5006564;28;20056;-66
2023/12/24 06:58:52;;;;;;;0.55;0.30;;;;;;;7.54;100.00;96903.78;5003455;28;20038;-66
2023/12/24 07:01:18;;;;;;;0.43;0.30;;;;;;;7.58;100.00;96900.56;5005915;28;20046;-66
2023/12/24 07:03:45;;;;;;;0.68;0.30;;;;;;;7.51;100.00;96895.34;5002640;28;20048;-68
2023/12/24 07:06:11;;;;;;;1.23;0.40;;;;;;;7.47;100.00;96886.13;4999935;28;20048;-67
2023/12/24 07:08:39;;;;;;;1.02;0.32;;;;;;;7.56;100.00;96895.47;5004230;28;20100;-65
2023/12/24 07:11:05;;;;;;;0.50;0.40;;;;;;;7.61;100.00;96889.31;5005707;28;20054;-65
2023/12/24 07:13:32;;;;;;;0.30;0.30;;;;;;;7.51;100.00;96885.41;4998557;28;20104;-66
2023/12/24 07:15:59;;;;;;;0.50;0.30;;;;;;;7.55;100.00;96883.03;5000331;28;20054;-64
2023/12/24 07:18:26;;;;;;;0.20;0.20;;;;;;;7.47;100.00;96878.03;4996317;28;20053;-65
2023/12/24 07:20:53;;;;;;;0.80;0.40;;;;;;;7.63;100.00;96889.91;5006483;28;20660;-68
2023/12/24 07:23:19;;;;;;;1.63;0.40;;;;;;;7.60;100.00;96879.59;5001293;28;20375;-66
2023/12/24 07:25:46;;;;;;;0.32;0.30;;;;;;;7.51;100.00;96882.69;5002668;28;20046;-66
2023/12/24 07:28:12;;;;;;;1.75;0.30;;;;;;;7.61;100.00;96863.19;5001950;28;20050;-66
2023/12/24 07:30:39;;;;;;;0.70;0.38;;;;;;;7.58;100.00;96861.00;4998693;28;20041;-66
2023/12/24 07:33:06;;;;;;;1.23;0.40;;;;;;;7.52;100.00;96843.13;4996353;28;20078;-68
2023/12/24 07:35:33;;;;;;;0.57;0.40;;;;;;;7.51;100.00;96846.84;5005549;28;20034;-68
2023/12/24 07:38:01;;;;;;;0.22;0.20;;;;;;;7.55;100.00;96840.75;5006493;28;20041;-66
2023/12/24 07:40:27;;;;;;;0.38;0.30;;;;;;;7.67;100.00;96837.94;5005567;28;20033;-68
2023/12/24 07:42:54;;;;;;;0.50;0.20;;;;;;;7.67;100.00;96831.75;5004996;28;20721;-66
2023/12/24 07:45:22;;;;;;;1.08;0.45;;;;;;;7.61;100.00;96832.72;4998776;28;20062;-65
2023/12/24 07:47:49;;;;;;;0.98;0.40;;;;;;;7.78;100.00;96844.31;5004891;28;20046;-66
2023/12/24 07:50:16;;;;;;;0.65;0.20;;;;;;;7.84;100.00;96844.38;5001446;28;20046;-66
2023/12/24 07:52:42;;;;;;;1.60;0.93;;;;;;;7.84;100.00;96844.38;5000670;28;20497;-65
2023/12/24 07:55:09;;;;;;;0.40;0.30;;;;;;;7.77;100.00;96855.34;4997233;28;20146;-65
2023/12/24 07:57:36;;;;;;;0.55;0.30;;;;;;;7.80;100.00;96865.63;4999141;28;20130;-68
2023/12/24 08:00:06;;;;;;;0.65;0.35;;;;;;;7.83;100.00;96875.09;5002549;28;20104;-65
2023/12/24 08:02:37;;;;;;;0.90;0.47;;;;;;;7.85;100.00;96868.41;5003830;28;20059;-65
2023/12/24 08:05:04;;;;;;;1.27;0.50;;;;;;;7.87;100.00;96873.53;5003439;28;20065;-66
2023/12/24 08:07:31;;;;;;;0.40;0.30;;;;;;;7.85;100.00;96854.91;4999655;28;20042;-69
2023/12/24 08:09:58;;;;;;;0.75;0.20;;;;;;;7.86;100.00;96866.53;5000401;28;20050;-68
2023/12/24 08:12:24;;;;;;;2.75;1.73;;;;;;;7.84;100.00;96856.00;4999169;28;20042;-65
2023/12/24 08:14:51;;;;;;;1.60;0.50;;;;;;;7.81;100.00;96854.59;5003277;28;20038;-68
2023/12/24 08:17:17;;;;;;;2.33;0.85;;;;;;;7.77;100.00;96856.16;4998880;28;20598;-65
2023/12/24 08:19:44;;;;;;;3.53;1.88;;;;;;;7.75;100.00;96844.00;4998208;28;20046;-68
2023/12/24 08:22:11;;;;;;;3.20;1.65;;;;;;;7.79;100.00;96845.13;5002486;28;20112;-65
2023/12/24 08:24:38;;;;;;;1.38;0.70;;;;;;;7.86;100.00;96845.78;4997336;28;20054;-67
2023/12/24 08:27:05;;;;;;;11.82;5.18;;;;;;;7.84;100.00;96841.69;4994469;28;20046;-67
2023/12/24 08:29:31;;;;;;;5.05;2.00;;;;;;;7.86;100.00;96826.91;5002170;28;20073;-66
2023/12/24 08:31:58;;;;;;;2.78;1.17;;;;;;;7.86;100.00;96844.97;4995108;28;20074;-65
2023/12/24 08:34:24;;;;;;;4.20;2.25;;;;;;;7.87;100.00;96825.03;4999840;28;20042;-66
2023/12/24 08:36:51;;;;;;;25.38;12.35;;;;;;;7.84;100.00;96823.66;4997174;28;20050;-66
2023/12/24 08:39:18;;;;;;;2.30;1.05;;;;;;;7.91;100.00;96815.38;5000039;28;20594;-66
2023/12/24 08:41:44;;;;;;;1.08;0.40;;;;;;;7.96;100.00;96817.34;4994908;28;20422;-69
2023/12/24 08:44:11;;;;;;;2.00;0.95;;;;;;;7.94;100.00;96815.72;4997166;28;20138;-66
2023/12/24 08:46:37;;;;;;;1.65;0.88;;;;;;;7.98;100.00;96834.06;4999006;28;20038;-66
2023/12/24 08:49:05;;;;;;;1.55;0.52;;;;;;;8.18;100.00;96828.97;4999059;28;20069;-66
2023/12/24 08:51:32;;;;;;;1.17;0.50;;;;;;;8.20;100.00;96824.16;4995906;28;20041;-69
2023/12/24 08:53:58;;;;;;;1.58;0.82;;;;;;;8.20;100.00;96831.41;4996095;28;20055;-66
2023/12/24 08:56:25;;;;;;;3.75;1.35;;;;;;;8.26;100.00;96835.00;5002834;28;20065;-67
2023/12/24 08:58:51;;;;;;;1.75;0.40;;;;;;;8.33;100.00;96835.59;4990876;28;20872;-66
2023/12/24 09:01:18;;;;;;;1.17;0.60;;;;;;;8.29;100.00;96854.19;4993631;28;20613;-67
2023/12/24 09:03:45;;;;;;;0.63;0.30;;;;;;;8.31;100.00;96856.63;4997931;28;20050;-69
2023/12/24 09:06:12;;;;;;;1.02;0.57;;;;;;;8.26;100.00;96862.75;4997424;28;20147;-66
2023/12/24 09:08:38;;;;;;;2.58;1.10;;;;;;;8.18;100.00;96863.19;5003311;28;20117;-66
2023/12/24 09:11:05;;;;;;;2.80;0.50;;;;;;;8.34;100.00;96864.22;5002189;28;20054;-68
2023/12/24 09:13:32;;;;;;;0.25;0.20;;;;;;;8.21;100.00;96862.69;4996152;28;20041;-67
2023/12/24 09:15:58;;;;;;;1.17;0.50;;;;;;;8.22;100.00;96872.41;5001952;28;20054;-67
2023/12/24 09:18:25;;;;;;;2.35;1.00;;;;;;;8.14;100.00;96868.28;5002446;28;20721;-67
2023/12/24 09:20:53;;;;;;;2.05;0.93;;;;;;;8.11;100.00;96860.66;5000352;28;20073;-66
2023/12/24 09:23:20;;;;;;;0.30;0.30;;;;;;;8.18;100.00;96871.28;5002292;28;20472;-67
2023/12/24 09:25:46;;;;;;;1.70;0.35;;;;;;;8.26;100.00;96860.06;5001057;28;20048;-67
2023/12/24 09:28:14;;;;;;;3.10;1.20;;;;;;;8.17;100.00;96862.38;4997528;28;20038;-69
2023/12/24 09:30:40;;;;;;;0.40;0.30;;;;;;;8.12;100.00;96853.41;5000378;28;20053;-66
2023/12/24 09:33:07;;;;;;;1.25;0.50;;;;;;;8.19;100.00;96859.44;4998170;28;20053;-69
2023/12/24 09:35:35;;;;;;;2.38;0.50;;;;;;;8.15;100.00;96861.81;4998740;28;20049;-66
2023/12/24 09:38:02;;;;;;;5.32;0.95;;;;;;;8.03;100.00;96847.63;5000914;28;20614;-67
2023/12/24 09:40:28;;;;;;;0.73;0.40;;;;;;;8.04;100.00;96854.66;4997171;28;20068;-66
2023/12/24 09:42:55;;;;;;;0.60;0.40;;;;;;;8.15;100.00;96859.09;4998345;28;20041;-67
2023/12/24 09:45:22;;;;;;;0.73;0.40;;;;;;;8.11;100.00;96862.56;5001064;28;20521;-66
2023/12/24 09:47:48;;;;;;;0.52;0.30;;;;;;;8.12;100.00;96856.09;4999963;28;20096;-66
2023/12/24 09:50:15;;;;;;;1.05;0.40;;;;;;;8.19;100.00;96852.16;4996925;28;20076;-66
2023/12/24 09:52:45;;;;;;;0.47;0.30;;;;;;;8.26;100.00;96857.38;5001414;28;20041;-66
2023/12/24 09:55:11;;;;;;;3.25;0.88;;;;;;;8.20;100.00;96853.81;4994727;28;20046;-67
2023/12/24 09:57:38;;;;;;;0.68;0.38;;;;;;;8.26;100.00;96868.16;4999514;28;20053;-67
2023/12/24 10:00:08;;;;;;;1.80;0.80;;;;;;;8.33;100.00;96868.78;5000224;28;20045;-66
2023/12/24 10:02:36;;;;;;;1.60;0.40;;;;;;;8.55;100.00;96867.22;4991198;28;20096;-65
2023/12/24 10:05:03;;;;;;;1.65;0.45;;;;;;;8.62;100.00;96856.22;4999631;28;20127;-63
2023/12/24 10:07:38;;;;;;;0.73;0.45;;;;;;;8.68;100.00;96863.31;5001772;28;20065;-64
2023/12/24 10:10:07;;;;;;;0.77;0.22;;;;;;;8.85;100.00;96855.94;4994810;28;20555;-64
2023/12/24 10:12:33;;;;;;;2.13;1.13;;;;;;;8.78;100.00;96859.91;4993504;28;20493;-63
2023/12/24 10:15:01;;;;;;;0.60;0.28;;;;;;;8.81;100.00;96862.91;4989125;28;20038;-64
2023/12/24 10:17:32;;;;;;;0.90;0.50;;;;;;;8.84;100.00;96837.28;5001139;28;20056;-66
2023/12/24 10:20:00;;;;;;;0.45;0.20;;;;;;;8.92;100.00;96844.94;4998630;28;20058;-65
2023/12/24 10:22:27;;;;;;;0.85;0.40;;;;;;;8.84;100.00;96835.41;5000826;28;20401;-64
2023/12/24 10:25:05;;;;;;;3.28;1.35;;;;;;;8.82;100.00;96836.75;4991297;28;20057;-66
2023/12/24 10:27:32;;;;;;;0.98;0.50;;;;;;;8.79;100.00;96834.53;4980458;28;20048;-62
2023/12/24 10:30:13;;;;;;;1.10;0.52;;;;;;;8.81;100.00;96827.03;4975023;28;20052;-63
2023/12/24 10:32:44;;;;;;;;;;;;;;;8.99;100.00;96836.63;5001631;28;20048;-64
2023/12/24 10:35:11;;;;;;;1.58;0.55;;;;;;;9.07;100.00;96844.28;4997676;28;19925;-63
2023/12/24 10:37:38;;;;;;;1.02;0.63;;;;;;;9.12;100.00;96846.22;4997696;28;20064;-66
2023/12/24 10:40:07;;;;;;;0.28;0.20;;;;;;;9.25;100.00;96847.69;4997853;28;20049;-64
2023/12/24 10:42:36;;;;;;;1.08;0.40;;;;;;;9.23;100.00;96858.78;4992663;28;20046;-64
2023/12/24 10:45:04;;;;;;;1.35;0.38;;;;;;;9.12;100.00;96859.72;4999732;28;20052;-66
2023/12/24 10:47:31;;;;;;;1.70;0.50;;;;;;;9.06;100.00;96852.63;4992345;28;20049;-66
2023/12/24 10:49:57;;;;;;;0.40;0.20;;;;;;;9.01;100.00;96855.28;4999695;28;20047;-66
2023/12/24 10:52:24;;;;;;;0.93;0.30;;;;;;;9.14;100.00;96843.28;5000017;28;20042;-68
2023/12/24 10:54:53;;;;;;;2.38;1.10;;;;;;;9.06;100.00;96856.16;5000981;28;20124;-68
2023/12/24 10:57:46;;;;;;;3.78;0.20;;;;;;;9.15;100.00;96855.69;4998070;28;20042;-68
2023/12/24 11:00:14;;;;;;;0.52;0.30;;;;;;;9.22;100.00;96867.91;5004179;28;20748;-66
2023/12/24 11:02:49;;;;;;;0.98;0.40;;;;;;;9.21;100.00;96851.97;4999664;28;20046;-64
2023/12/24 11:05:42;;;;;;;1.23;0.35;;;;;;;9.22;100.00;96853.63;4995400;28;20312;-65
2023/12/24 11:08:21;;;;;;;0.43;0.20;;;;;;;9.25;100.00;96847.69;4997456;28;20050;-66
2023/12/24 11:10:55;;;;;;;0.52;0.22;;;;;;;9.16;100.00;96838.41;4995889;28;20038;-65
2023/12/24 11:13:36;;;;;;;0.60;0.30;;;;;;;9.18;100.00;96839.00;5001384;28;20049;-64
2023/12/24 11:16:05;;;;;;;0.95;0.40;;;;;;;9.16;100.00;96824.91;4993474;28;20536;-64
2023/12/24 11:18:56;;;;;;;0.47;0.20;;;;;;;9.39;100.00;96822.97;4999172;28;20038;-64
2023/12/24 11:21:23;;;;;;;0.63;0.17;;;;;;;9.42;100.00;96825.94;5001987;28;20119;-65
2023/12/24 11:24:07;;;;;;;0.35;0.20;;;;;;;9.24;100.00;96825.28;4999679;28;20046;-64
2023/12/24 11:26:34;;;;;;;0.28;0.13;;;;;;;9.22;100.00;96829.31;5002594;28;20093;-65
2023/12/24 11:29:02;;;;;;;1.05;0.38;;;;;;;9.19;100.00;96832.50;4996378;28;20061;-66
2023/12/24 11:31:29;;;;;;;1.25;0.40;;;;;;;9.28;100.00;96824.75;5000776;28;20069;-65
2023/12/24 11:33:56;;;;;;;0.68;0.20;;;;;;;9.30;100.00;96833.41;4999916;28;20084;-66
2023/12/24 11:36:24;;;;;;;0.30;0.10;;;;;;;9.21;100.00;96839.28;5001984;28;20053;-63